sensor_id;sensor_type;location;lat;lon;timestamp;pressure;altitude;pressure_sealevel;temperature;humidity
74163;BME280;62515;52.758;5.076;2023-12-20T00:01:33;101519.28;;;6.69;100.00
74163;BME280;62515;52.758;5.076;2023-12-20T00:04:00;101518.06;;;6.76;100.00
74163;BME280;62515;52.758;5.076;2023-12-20T00:06:26;101509.34;;;6.74;100.00
74163;BME280;62515;52.758;5.076;2023-12-20T00:08:53;101512.31;;;6.67;100.00
74163;BME280;62515;52.758;5.076;2023-12-20T00:11:20;101509.09;;;6.60;100.00
74163;BME280;62515;52.758;5.076;2023-12-20T00:13:47;101496.06;;;6.76;100.00
74163;BME280;62515;52.758;5.076;2023-12-20T00:16:17;101498.75;;;6.74;100.00
74163;BME280;62515;52.758;5.076;2023-12-20T00:18:45;101502.03;;;6.61;100.00
74163;BME280;62515;52.758;5.076;2023-12-20T00:21:12;101516.94;;;6.43;100.00
74163;BME280;62515;52.758;5.076;2023-12-20T00:23:39;101513.19;;;6.47;100.00
74163;BME280;62515;52.758;5.076;2023-12-20T00:26:05;101514.78;;;6.51;100.00
74163;BME280;62515;52.758;5.076;2023-12-20T00:28:32;101514.44;;;6.79;100.00
74163;BME280;62515;52.758;5.076;2023-12-20T00:30:59;101510.06;;;6.78;100.00
74163;BME280;62515;52.758;5.076;2023-12-20T00:33:26;101506.63;;;6.76;100.00
74163;BME280;62515;52.758;5.076;2023-12-20T00:35:54;101493.28;;;6.79;100.00
74163;BME280;62515;52.758;5.076;2023-12-20T00:38:21;101491.69;;;6.75;100.00
74163;BME280;62515;52.758;5.076;2023-12-20T00:40:47;101496.41;;;6.87;100.00
74163;BME280;62515;52.758;5.076;2023-12-20T00:43:14;101495.50;;;6.88;100.00
74163;BME280;62515;52.758;5.076;2023-12-20T00:45:41;101499.00;;;6.89;100.00
74163;BME280;62515;52.758;5.076;2023-12-20T00:48:08;101504.34;;;6.87;100.00
74163;BME280;62515;52.758;5.076;2023-12-20T00:50:35;101506.13;;;6.87;100.00
74163;BME280;62515;52.758;5.076;2023-12-20T00:53:03;101505.84;;;6.74;100.00
74163;BME280;62515;52.758;5.076;2023-12-20T00:55:30;101499.63;;;6.75;100.00
74163;BME280;62515;52.758;5.076;2023-12-20T00:57:56;101490.91;;;6.73;100.00
74163;BME280;62515;52.758;5.076;2023-12-20T01:00:23;101495.13;;;6.77;100.00
74163;BME280;62515;52.758;5.076;2023-12-20T01:02:50;101493.72;;;6.89;100.00
74163;BME280;62515;52.758;5.076;2023-12-20T01:05:17;101502.66;;;7.05;100.00
74163;BME280;62515;52.758;5.076;2023-12-20T01:07:44;101497.28;;;7.25;100.00
74163;BME280;62515;52.758;5.076;2023-12-20T01:10:13;101483.34;;;7.21;100.00
74163;BME280;62515;52.758;5.076;2023-12-20T01:12:40;101499.22;;;7.21;100.00
74163;BME280;62515;52.758;5.076;2023-12-20T01:15:07;101491.84;;;7.28;100.00
74163;BME280;62515;52.758;5.076;2023-12-20T01:17:34;101491.34;;;7.20;100.00
74163;BME280;62515;52.758;5.076;2023-12-20T01:20:01;101491.53;;;7.15;100.00
74163;BME280;62515;52.758;5.076;2023-12-20T01:22:28;101475.53;;;7.18;100.00
74163;BME280;62515;52.758;5.076;2023-12-20T01:24:55;101483.09;;;7.26;100.00
74163;BME280;62515;52.758;5.076;2023-12-20T01:27:23;101473.94;;;7.33;100.00
74163;BME280;62515;52.758;5.076;2023-12-20T01:29:49;101480.16;;;7.32;100.00
74163;BME280;62515;52.758;5.076;2023-12-20T01:32:16;101488.25;;;7.29;100.00
74163;BME280;62515;52.758;5.076;2023-12-20T01:34:43;101494.75;;;7.22;100.00
74163;BME280;62515;52.758;5.076;2023-12-20T01:37:10;101492.34;;;7.17;100.00
74163;BME280;62515;52.758;5.076;2023-12-20T01:39:37;101495.00;;;7.17;100.00
74163;BME280;62515;52.758;5.076;2023-12-20T01:42:04;101494.66;;;7.25;100.00
74163;BME280;62515;52.758;5.076;2023-12-20T01:44:32;101484.88;;;7.25;100.00
74163;BME280;62515;52.758;5.076;2023-12-20T01:46:59;101469.00;;;7.25;100.00
74163;BME280;62515;52.758;5.076;2023-12-20T01:49:27;101476.13;;;7.25;100.00
74163;BME280;62515;52.758;5.076;2023-12-20T01:51:54;101476.75;;;7.30;100.00
74163;BME280;62515;52.758;5.076;2023-12-20T01:54:22;101475.81;;;7.31;100.00
74163;BME280;62515;52.758;5.076;2023-12-20T01:56:49;101465.22;;;7.31;100.00
74163;BME280;62515;52.758;5.076;2023-12-20T01:59:17;101471.91;;;7.38;100.00
74163;BME280;62515;52.758;5.076;2023-12-20T02:01:47;101476.44;;;7.36;100.00
74163;BME280;62515;52.758;5.076;2023-12-20T02:04:14;101475.22;;;7.43;100.00
74163;BME280;62515;52.758;5.076;2023-12-20T02:06:42;101479.34;;;7.49;100.00
74163;BME280;62515;52.758;5.076;2023-12-20T02:09:10;101468.34;;;7.39;100.00
74163;BME280;62515;52.758;5.076;2023-12-20T02:11:37;101473.50;;;7.42;100.00
74163;BME280;62515;52.758;5.076;2023-12-20T02:14:04;101472.63;;;7.42;100.00
74163;BME280;62515;52.758;5.076;2023-12-20T02:16:31;101459.63;;;7.37;100.00
74163;BME280;62515;52.758;5.076;2023-12-20T02:18:59;101456.19;;;7.35;100.00
74163;BME280;62515;52.758;5.076;2023-12-20T02:21:33;101468.22;;;7.23;100.00
74163;BME280;62515;52.758;5.076;2023-12-20T02:24:00;101454.78;;;7.28;100.00
74163;BME280;62515;52.758;5.076;2023-12-20T02:26:27;101456.63;;;7.26;100.00
74163;BME280;62515;52.758;5.076;2023-12-20T02:28:54;101454.22;;;7.21;100.00
74163;BME280;62515;52.758;5.076;2023-12-20T02:31:21;101443.91;;;7.15;100.00
74163;BME280;62515;52.758;5.076;2023-12-20T02:33:48;101448.38;;;7.15;100.00
74163;BME280;62515;52.758;5.076;2023-12-20T02:36:15;101429.75;;;7.16;100.00
74163;BME280;62515;52.758;5.076;2023-12-20T02:38:43;101429.19;;;7.10;100.00
74163;BME280;62515;52.758;5.076;2023-12-20T02:41:09;101436.97;;;7.13;100.00
74163;BME280;62515;52.758;5.076;2023-12-20T02:43:37;101444.19;;;7.09;100.00
74163;BME280;62515;52.758;5.076;2023-12-20T02:46:03;101442.09;;;6.99;100.00
74163;BME280;62515;52.758;5.076;2023-12-20T02:48:30;101431.34;;;7.02;100.00
74163;BME280;62515;52.758;5.076;2023-12-20T02:50:57;101426.34;;;6.96;100.00
74163;BME280;62515;52.758;5.076;2023-12-20T02:53:24;101426.34;;;6.96;100.00
74163;BME280;62515;52.758;5.076;2023-12-20T02:55:52;101423.72;;;6.96;100.00
74163;BME280;62515;52.758;5.076;2023-12-20T02:58:18;101425.25;;;7.00;100.00
74163;BME280;62515;52.758;5.076;2023-12-20T03:00:45;101418.69;;;7.08;100.00
74163;BME280;62515;52.758;5.076;2023-12-20T03:03:12;101431.69;;;7.13;100.00
74163;BME280;62515;52.758;5.076;2023-12-20T03:05:39;101417.31;;;7.18;100.00
74163;BME280;62515;52.758;5.076;2023-12-20T03:08:06;101430.75;;;7.14;100.00
74163;BME280;62515;52.758;5.076;2023-12-20T03:10:32;101428.63;;;7.03;100.00
74163;BME280;62515;52.758;5.076;2023-12-20T03:13:00;101427.13;;;6.98;100.00
74163;BME280;62515;52.758;5.076;2023-12-20T03:15:27;101421.19;;;7.11;100.00
74163;BME280;62515;52.758;5.076;2023-12-20T03:17:54;101430.91;;;7.11;100.00
74163;BME280;62515;52.758;5.076;2023-12-20T03:20:21;101396.50;;;7.11;100.00
74163;BME280;62515;52.758;5.076;2023-12-20T03:22:47;101440.75;;;7.26;100.00
74163;BME280;62515;52.758;5.076;2023-12-20T03:25:14;101436.53;;;7.22;100.00
74163;BME280;62515;52.758;5.076;2023-12-20T03:27:41;101435.91;;;7.17;100.00
74163;BME280;62515;52.758;5.076;2023-12-20T03:30:10;101427.03;;;7.18;100.00
74163;BME280;62515;52.758;5.076;2023-12-20T03:32:38;101422.81;;;7.14;100.00
74163;BME280;62515;52.758;5.076;2023-12-20T03:35:05;101425.00;;;7.23;100.00
74163;BME280;62515;52.758;5.076;2023-12-20T03:37:32;101421.44;;;7.24;100.00
74163;BME280;62515;52.758;5.076;2023-12-20T03:39:59;101432.59;;;7.30;100.00
74163;BME280;62515;52.758;5.076;2023-12-20T03:42:26;101422.38;;;7.23;100.00
74163;BME280;62515;52.758;5.076;2023-12-20T03:44:52;101426.19;;;7.17;100.00
74163;BME280;62515;52.758;5.076;2023-12-20T03:47:20;101426.75;;;7.24;100.00
74163;BME280;62515;52.758;5.076;2023-12-20T03:49:47;101413.66;;;7.21;100.00
74163;BME280;62515;52.758;5.076;2023-12-20T03:52:14;101421.09;;;7.31;100.00
74163;BME280;62515;52.758;5.076;2023-12-20T03:54:41;101413.03;;;7.33;100.00
74163;BME280;62515;52.758;5.076;2023-12-20T03:57:08;101408.53;;;7.35;100.00
74163;BME280;62515;52.758;5.076;2023-12-20T03:59:35;101415.63;;;7.34;100.00
74163;BME280;62515;52.758;5.076;2023-12-20T04:02:02;101403.78;;;7.42;100.00
74163;BME280;62515;52.758;5.076;2023-12-20T04:04:31;101403.31;;;7.33;100.00
74163;BME280;62515;52.758;5.076;2023-12-20T04:06:57;101394.84;;;7.44;100.00
74163;BME280;62515;52.758;5.076;2023-12-20T04:09:24;101396.25;;;7.34;100.00
74163;BME280;62515;52.758;5.076;2023-12-20T04:11:51;101395.59;;;7.29;100.00
74163;BME280;62515;52.758;5.076;2023-12-20T04:14:18;101387.50;;;7.32;100.00
74163;BME280;62515;52.758;5.076;2023-12-20T04:16:45;101376.75;;;7.18;100.00
74163;BME280;62515;52.758;5.076;2023-12-20T04:19:13;101383.13;;;7.14;100.00
74163;BME280;62515;52.758;5.076;2023-12-20T04:21:41;101382.19;;;7.15;100.00
74163;BME280;62515;52.758;5.076;2023-12-20T04:24:08;101382.03;;;7.18;100.00
74163;BME280;62515;52.758;5.076;2023-12-20T04:26:35;101385.97;;;7.28;100.00
74163;BME280;62515;52.758;5.076;2023-12-20T04:29:02;101374.66;;;7.24;100.00
74163;BME280;62515;52.758;5.076;2023-12-20T04:31:28;101379.81;;;7.27;100.00
74163;BME280;62515;52.758;5.076;2023-12-20T04:33:55;101375.22;;;7.31;100.00
74163;BME280;62515;52.758;5.076;2023-12-20T04:36:22;101377.06;;;7.29;100.00
74163;BME280;62515;52.758;5.076;2023-12-20T04:38:50;101366.66;;;7.43;100.00
74163;BME280;62515;52.758;5.076;2023-12-20T04:41:17;101365.03;;;7.41;100.00
74163;BME280;62515;52.758;5.076;2023-12-20T04:43:43;101373.81;;;7.41;100.00
74163;BME280;62515;52.758;5.076;2023-12-20T04:46:10;101367.66;;;7.41;100.00
74163;BME280;62515;52.758;5.076;2023-12-20T04:48:37;101354.03;;;7.31;100.00
74163;BME280;62515;52.758;5.076;2023-12-20T04:51:04;101375.50;;;7.42;100.00
74163;BME280;62515;52.758;5.076;2023-12-20T04:53:30;101373.19;;;7.36;100.00
74163;BME280;62515;52.758;5.076;2023-12-20T04:55:58;101374.91;;;7.37;100.00
74163;BME280;62515;52.758;5.076;2023-12-20T04:58:25;101373.66;;;7.44;100.00
74163;BME280;62515;52.758;5.076;2023-12-20T05:00:52;101385.34;;;7.40;100.00
74163;BME280;62515;52.758;5.076;2023-12-20T05:03:19;101380.91;;;7.41;100.00
74163;BME280;62515;52.758;5.076;2023-12-20T05:05:46;101380.19;;;7.37;100.00
74163;BME280;62515;52.758;5.076;2023-12-20T05:08:12;101383.63;;;7.39;100.00
74163;BME280;62515;52.758;5.076;2023-12-20T05:10:39;101386.50;;;7.34;100.00
74163;BME280;62515;52.758;5.076;2023-12-20T05:13:07;101368.44;;;7.43;100.00
74163;BME280;62515;52.758;5.076;2023-12-20T05:15:34;101375.22;;;7.48;100.00
74163;BME280;62515;52.758;5.076;2023-12-20T05:18:01;101376.72;;;7.54;100.00
74163;BME280;62515;52.758;5.076;2023-12-20T05:20:28;101368.06;;;7.50;100.00
74163;BME280;62515;52.758;5.076;2023-12-20T05:22:55;101370.63;;;7.52;100.00
74163;BME280;62515;52.758;5.076;2023-12-20T05:25:21;101363.47;;;7.54;100.00
74163;BME280;62515;52.758;5.076;2023-12-20T05:27:48;101365.16;;;7.55;100.00
74163;BME280;62515;52.758;5.076;2023-12-20T05:30:17;101345.63;;;7.57;100.00
74163;BME280;62515;52.758;5.076;2023-12-20T05:32:44;101357.91;;;7.58;100.00
74163;BME280;62515;52.758;5.076;2023-12-20T05:35:10;101356.94;;;7.61;100.00
74163;BME280;62515;52.758;5.076;2023-12-20T05:37:37;101354.78;;;7.67;100.00
74163;BME280;62515;52.758;5.076;2023-12-20T05:40:05;101347.66;;;7.69;100.00
74163;BME280;62515;52.758;5.076;2023-12-20T05:42:32;101354.78;;;7.67;100.00
74163;BME280;62515;52.758;5.076;2023-12-20T05:44:59;101349.38;;;7.70;100.00
74163;BME280;62515;52.758;5.076;2023-12-20T05:47:27;101353.72;;;7.71;100.00
74163;BME280;62515;52.758;5.076;2023-12-20T05:49:54;101341.97;;;7.77;100.00
74163;BME280;62515;52.758;5.076;2023-12-20T05:52:21;101347.47;;;7.89;100.00
74163;BME280;62515;52.758;5.076;2023-12-20T05:54:48;101321.06;;;8.04;100.00
74163;BME280;62515;52.758;5.076;2023-12-20T05:57:14;101342.13;;;8.07;100.00
74163;BME280;62515;52.758;5.076;2023-12-20T05:59:41;101333.63;;;8.00;100.00
74163;BME280;62515;52.758;5.076;2023-12-20T06:02:08;101331.94;;;7.99;100.00
74163;BME280;62515;52.758;5.076;2023-12-20T06:04:36;101331.41;;;7.93;100.00
74163;BME280;62515;52.758;5.076;2023-12-20T06:07:03;101342.78;;;7.77;100.00
74163;BME280;62515;52.758;5.076;2023-12-20T06:09:30;101328.28;;;7.84;100.00
74163;BME280;62515;52.758;5.076;2023-12-20T06:11:58;101325.63;;;7.84;100.00
74163;BME280;62515;52.758;5.076;2023-12-20T06:14:24;101321.44;;;7.80;100.00
74163;BME280;62515;52.758;5.076;2023-12-20T06:16:51;101333.06;;;7.78;100.00
74163;BME280;62515;52.758;5.076;2023-12-20T06:19:18;101337.66;;;7.74;100.00
74163;BME280;62515;52.758;5.076;2023-12-20T06:21:46;101332.59;;;7.70;100.00
74163;BME280;62515;52.758;5.076;2023-12-20T06:24:13;101347.72;;;7.68;100.00
74163;BME280;62515;52.758;5.076;2023-12-20T06:26:39;101349.81;;;7.78;100.00
74163;BME280;62515;52.758;5.076;2023-12-20T06:29:06;101366.19;;;7.86;100.00
74163;BME280;62515;52.758;5.076;2023-12-20T06:31:33;101356.84;;;7.79;100.00
74163;BME280;62515;52.758;5.076;2023-12-20T06:34:00;101351.53;;;7.79;100.00
74163;BME280;62515;52.758;5.076;2023-12-20T06:36:27;101342.56;;;7.82;100.00
74163;BME280;62515;52.758;5.076;2023-12-20T06:38:55;101337.81;;;7.71;100.00
74163;BME280;62515;52.758;5.076;2023-12-20T06:41:22;101343.13;;;7.71;100.00
74163;BME280;62515;52.758;5.076;2023-12-20T06:43:49;101342.56;;;7.65;100.00
74163;BME280;62515;52.758;5.076;2023-12-20T06:46:16;101336.72;;;7.58;100.00
74163;BME280;62515;52.758;5.076;2023-12-20T06:48:44;101330.13;;;7.67;100.00
74163;BME280;62515;52.758;5.076;2023-12-20T06:51:13;101340.00;;;7.63;100.00
74163;BME280;62515;52.758;5.076;2023-12-20T06:53:40;101331.75;;;7.52;100.00
74163;BME280;62515;52.758;5.076;2023-12-20T06:56:09;101340.00;;;7.46;100.00
74163;BME280;62515;52.758;5.076;2023-12-20T06:58:37;101340.72;;;7.50;100.00
74163;BME280;62515;52.758;5.076;2023-12-20T07:01:03;101336.13;;;7.53;100.00
74163;BME280;62515;52.758;5.076;2023-12-20T07:03:30;101334.72;;;7.63;100.00
74163;BME280;62515;52.758;5.076;2023-12-20T07:05:57;101317.56;;;7.70;100.00
74163;BME280;62515;52.758;5.076;2023-12-20T07:08:24;101327.16;;;7.73;100.00
74163;BME280;62515;52.758;5.076;2023-12-20T07:10:50;101310.16;;;7.77;100.00
74163;BME280;62515;52.758;5.076;2023-12-20T07:13:19;101312.56;;;7.81;100.00
74163;BME280;62515;52.758;5.076;2023-12-20T07:15:45;101305.25;;;7.86;100.00
74163;BME280;62515;52.758;5.076;2023-12-20T07:18:12;101310.38;;;7.89;100.00
74163;BME280;62515;52.758;5.076;2023-12-20T07:20:39;101296.78;;;7.96;100.00
74163;BME280;62515;52.758;5.076;2023-12-20T07:23:06;101311.59;;;8.00;100.00
74163;BME280;62515;52.758;5.076;2023-12-20T07:25:33;101319.63;;;7.98;100.00
74163;BME280;62515;52.758;5.076;2023-12-20T07:28:00;101306.97;;;8.03;100.00
74163;BME280;62515;52.758;5.076;2023-12-20T07:30:28;101318.41;;;8.04;100.00
74163;BME280;62515;52.758;5.076;2023-12-20T07:32:55;101305.00;;;8.07;100.00
74163;BME280;62515;52.758;5.076;2023-12-20T07:35:23;101316.22;;;8.12;100.00
74163;BME280;62515;52.758;5.076;2023-12-20T07:37:50;101320.09;;;8.06;100.00
74163;BME280;62515;52.758;5.076;2023-12-20T07:40:16;101336.81;;;8.07;100.00
74163;BME280;62515;52.758;5.076;2023-12-20T07:42:43;101331.94;;;7.99;100.00
74163;BME280;62515;52.758;5.076;2023-12-20T07:45:10;101337.78;;;8.06;100.00
74163;BME280;62515;52.758;5.076;2023-12-20T07:47:39;101336.13;;;8.03;100.00
74163;BME280;62515;52.758;5.076;2023-12-20T07:50:06;101327.34;;;8.03;100.00
74163;BME280;62515;52.758;5.076;2023-12-20T07:52:33;101333.72;;;7.99;100.00
74163;BME280;62515;52.758;5.076;2023-12-20T07:54:59;101325.69;;;8.00;100.00
74163;BME280;62515;52.758;5.076;2023-12-20T07:57:28;101336.22;;;8.02;100.00
74163;BME280;62515;52.758;5.076;2023-12-20T07:59:55;101349.38;;;8.03;100.00
74163;BME280;62515;52.758;5.076;2023-12-20T08:02:22;101339.28;;;8.10;100.00
74163;BME280;62515;52.758;5.076;2023-12-20T08:04:50;101336.22;;;8.02;100.00
74163;BME280;62515;52.758;5.076;2023-12-20T08:07:17;101338.31;;;8.12;100.00
74163;BME280;62515;52.758;5.076;2023-12-20T08:09:43;101352.31;;;8.14;100.00
74163;BME280;62515;52.758;5.076;2023-12-20T08:12:10;101346.84;;;8.17;100.00
74163;BME280;62515;52.758;5.076;2023-12-20T08:14:37;101353.00;;;8.18;100.00
74163;BME280;62515;52.758;5.076;2023-12-20T08:17:04;101339.81;;;8.16;100.00
74163;BME280;62515;52.758;5.076;2023-12-20T08:19:30;101340.53;;;8.20;100.00
74163;BME280;62515;52.758;5.076;2023-12-20T08:21:59;101328.91;;;8.22;100.00
74163;BME280;62515;52.758;5.076;2023-12-20T08:24:26;101338.50;;;8.25;100.00
74163;BME280;62515;52.758;5.076;2023-12-20T08:26:52;101339.34;;;8.25;100.00
74163;BME280;62515;52.758;5.076;2023-12-20T08:29:19;101331.31;;;8.27;100.00
74163;BME280;62515;52.758;5.076;2023-12-20T08:31:46;101331.84;;;8.33;100.00
74163;BME280;62515;52.758;5.076;2023-12-20T08:34:12;101339.97;;;8.30;100.00
74163;BME280;62515;52.758;5.076;2023-12-20T08:36:39;101336.31;;;8.33;100.00
74163;BME280;62515;52.758;5.076;2023-12-20T08:39:07;101318.69;;;8.32;100.00
74163;BME280;62515;52.758;5.076;2023-12-20T08:41:35;101344.53;;;8.28;100.00
74163;BME280;62515;52.758;5.076;2023-12-20T08:44:02;101337.25;;;8.32;100.00
74163;BME280;62515;52.758;5.076;2023-12-20T08:46:29;101352.84;;;8.38;100.00
74163;BME280;62515;52.758;5.076;2023-12-20T08:48:56;101349.84;;;8.44;100.00
74163;BME280;62515;52.758;5.076;2023-12-20T08:51:23;101347.63;;;8.52;100.00
74163;BME280;62515;52.758;5.076;2023-12-20T08:53:50;101354.97;;;8.47;100.00
74163;BME280;62515;52.758;5.076;2023-12-20T08:56:18;101346.00;;;8.50;100.00
74163;BME280;62515;52.758;5.076;2023-12-20T08:58:45;101340.63;;;8.51;100.00
74163;BME280;62515;52.758;5.076;2023-12-20T09:01:12;101329.84;;;8.54;100.00
74163;BME280;62515;52.758;5.076;2023-12-20T09:03:39;101337.69;;;8.56;100.00
74163;BME280;62515;52.758;5.076;2023-12-20T09:06:06;101332.84;;;8.48;100.00
74163;BME280;62515;52.758;5.076;2023-12-20T09:08:33;101334.97;;;8.57;100.00
74163;BME280;62515;52.758;5.076;2023-12-20T09:11:00;101337.63;;;8.57;100.00
74163;BME280;62515;52.758;5.076;2023-12-20T09:13:29;101345.06;;;8.66;100.00
74163;BME280;62515;52.758;5.076;2023-12-20T09:15:55;101334.44;;;8.66;100.00
74163;BME280;62515;52.758;5.076;2023-12-20T09:18:23;101342.41;;;8.66;100.00
74163;BME280;62515;52.758;5.076;2023-12-20T09:20:50;101351.56;;;8.61;100.00
74163;BME280;62515;52.758;5.076;2023-12-20T09:23:16;101349.00;;;8.59;100.00
74163;BME280;62515;52.758;5.076;2023-12-20T09:25:43;101346.09;;;8.64;100.00
74163;BME280;62515;52.758;5.076;2023-12-20T09:28:10;101352.84;;;8.69;100.00
74163;BME280;62515;52.758;5.076;2023-12-20T09:30:38;101350.03;;;8.72;100.00
74163;BME280;62515;52.758;5.076;2023-12-20T09:33:05;101346.00;;;8.65;100.00
74163;BME280;62515;52.758;5.076;2023-12-20T09:35:32;101341.13;;;8.58;100.00
74163;BME280;62515;52.758;5.076;2023-12-20T09:37:59;101355.16;;;8.60;100.00
74163;BME280;62515;52.758;5.076;2023-12-20T09:40:26;101344.38;;;8.63;100.00
74163;BME280;62515;52.758;5.076;2023-12-20T09:42:57;101366.63;;;8.60;100.00
74163;BME280;62515;52.758;5.076;2023-12-20T09:45:24;101356.94;;;8.59;100.00
74163;BME280;62515;52.758;5.076;2023-12-20T09:47:53;101374.19;;;8.68;100.00
74163;BME280;62515;52.758;5.076;2023-12-20T09:50:21;101381.69;;;8.75;100.00
74163;BME280;62515;52.758;5.076;2023-12-20T09:52:50;101374.53;;;8.77;100.00
74163;BME280;62515;52.758;5.076;2023-12-20T09:55:17;101376.50;;;8.74;100.00
74163;BME280;62515;52.758;5.076;2023-12-20T09:57:44;101374.44;;;8.79;100.00
74163;BME280;62515;52.758;5.076;2023-12-20T10:00:13;101383.34;;;8.93;100.00
74163;BME280;62515;52.758;5.076;2023-12-20T10:02:44;101359.81;;;8.87;100.00
74163;BME280;62515;52.758;5.076;2023-12-20T10:05:16;101387.00;;;8.91;100.00
74163;BME280;62515;52.758;5.076;2023-12-20T10:07:43;101370.81;;;8.96;100.00
74163;BME280;62515;52.758;5.076;2023-12-20T10:10:12;101372.38;;;9.00;100.00
74163;BME280;62515;52.758;5.076;2023-12-20T10:12:39;101371.75;;;8.94;100.00
74163;BME280;62515;52.758;5.076;2023-12-20T10:15:06;101371.00;;;8.77;100.00
74163;BME280;62515;52.758;5.076;2023-12-20T10:17:33;101382.47;;;9.09;100.00
74163;BME280;62515;52.758;5.076;2023-12-20T10:20:00;101377.06;;;9.26;100.00
74163;BME280;62515;52.758;5.076;2023-12-20T10:22:29;101380.81;;;9.22;100.00
74163;BME280;62515;52.758;5.076;2023-12-20T10:24:56;101374.75;;;9.20;100.00
74163;BME280;62515;52.758;5.076;2023-12-20T10:27:23;101372.50;;;9.28;100.00
74163;BME280;62515;52.758;5.076;2023-12-20T10:29:49;101366.53;;;9.54;100.00
74163;BME280;62515;52.758;5.076;2023-12-20T10:32:25;101374.06;;;9.62;100.00
74163;BME280;62515;52.758;5.076;2023-12-20T10:34:52;101362.19;;;9.37;100.00
74163;BME280;62515;52.758;5.076;2023-12-20T10:37:20;101379.06;;;9.36;100.00
74163;BME280;62515;52.758;5.076;2023-12-20T10:39:50;101366.81;;;9.34;100.00
74163;BME280;62515;52.758;5.076;2023-12-20T10:42:18;101354.91;;;9.41;100.00
74163;BME280;62515;52.758;5.076;2023-12-20T10:44:47;101356.13;;;9.35;100.00
74163;BME280;62515;52.758;5.076;2023-12-20T10:47:14;101357.00;;;9.36;100.00
74163;BME280;62515;52.758;5.076;2023-12-20T10:49:41;101344.53;;;9.66;100.00
74163;BME280;62515;52.758;5.076;2023-12-20T10:52:09;101340.94;;;9.67;100.00
74163;BME280;62515;52.758;5.076;2023-12-20T10:54:35;101336.16;;;9.88;100.00
74163;BME280;62515;52.758;5.076;2023-12-20T10:57:05;101343.03;;;9.76;100.00
74163;BME280;62515;52.758;5.076;2023-12-20T10:59:33;101342.84;;;9.65;100.00
74163;BME280;62515;52.758;5.076;2023-12-20T11:02:01;101333.59;;;9.27;100.00
74163;BME280;62515;52.758;5.076;2023-12-20T11:04:36;101333.78;;;9.24;100.00
74163;BME280;62515;52.758;5.076;2023-12-20T11:07:12;101337.47;;;9.21;100.00
74163;BME280;62515;52.758;5.076;2023-12-20T11:09:47;101334.06;;;9.19;100.00
74163;BME280;62515;52.758;5.076;2023-12-20T11:12:20;101338.09;;;9.26;100.00
74163;BME280;62515;52.758;5.076;2023-12-20T11:14:51;101337.78;;;9.31;100.00
74163;BME280;62515;52.758;5.076;2023-12-20T11:17:19;101327.97;;;9.33;100.00
74163;BME280;62515;52.758;5.076;2023-12-20T11:20:06;101336.38;;;9.25;100.00
74163;BME280;62515;52.758;5.076;2023-12-20T11:22:34;101337.28;;;9.24;100.00
74163;BME280;62515;52.758;5.076;2023-12-20T11:25:07;101335.59;;;9.08;100.00
74163;BME280;62515;52.758;5.076;2023-12-20T11:27:36;101323.69;;;9.15;100.00
74163;BME280;62515;52.758;5.076;2023-12-20T11:30:04;101329.19;;;9.12;100.00
74163;BME280;62515;52.758;5.076;2023-12-20T11:32:33;101309.00;;;9.09;100.00
74163;BME280;62515;52.758;5.076;2023-12-20T11:35:01;101308.81;;;9.12;100.00
74163;BME280;62515;52.758;5.076;2023-12-20T11:37:42;101289.97;;;9.17;100.00
74163;BME280;62515;52.758;5.076;2023-12-20T11:40:12;101293.31;;;9.05;100.00
74163;BME280;62515;52.758;5.076;2023-12-20T11:42:42;101305.84;;;9.03;100.00
74163;BME280;62515;52.758;5.076;2023-12-20T11:45:10;101317.38;;;9.02;100.00
74163;BME280;62515;52.758;5.076;2023-12-20T11:47:37;101316.44;;;9.03;100.00
74163;BME280;62515;52.758;5.076;2023-12-20T11:50:05;101298.91;;;9.00;100.00
74163;BME280;62515;52.758;5.076;2023-12-20T11:52:32;101292.38;;;9.06;100.00
74163;BME280;62515;52.758;5.076;2023-12-20T11:54:59;101293.50;;;9.02;100.00
74163;BME280;62515;52.758;5.076;2023-12-20T11:57:26;101282.69;;;9.05;100.00
74163;BME280;62515;52.758;5.076;2023-12-20T11:59:55;101282.94;;;9.16;100.00
74163;BME280;62515;52.758;5.076;2023-12-20T12:02:22;101273.94;;;9.18;100.00
74163;BME280;62515;52.758;5.076;2023-12-20T12:04:49;101275.84;;;9.16;100.00
74163;BME280;62515;52.758;5.076;2023-12-20T12:07:16;101284.91;;;9.12;100.00
74163;BME280;62515;52.758;5.076;2023-12-20T12:09:43;101277.03;;;9.11;100.00
74163;BME280;62515;52.758;5.076;2023-12-20T12:12:10;101281.81;;;9.20;100.00
74163;BME280;62515;52.758;5.076;2023-12-20T12:14:40;101283.63;;;9.19;100.00
74163;BME280;62515;52.758;5.076;2023-12-20T12:17:11;101271.28;;;9.18;100.00
74163;BME280;62515;52.758;5.076;2023-12-20T12:19:38;101269.56;;;9.17;100.00
74163;BME280;62515;52.758;5.076;2023-12-20T12:22:06;101252.19;;;9.12;100.00
74163;BME280;62515;52.758;5.076;2023-12-20T12:24:33;101258.72;;;9.06;100.00
74163;BME280;62515;52.758;5.076;2023-12-20T12:27:00;101252.91;;;9.00;100.00
74163;BME280;62515;52.758;5.076;2023-12-20T12:29:27;101252.56;;;9.06;100.00
74163;BME280;62515;52.758;5.076;2023-12-20T12:31:54;101249.97;;;9.04;100.00
74163;BME280;62515;52.758;5.076;2023-12-20T12:34:22;101260.69;;;9.03;100.00
74163;BME280;62515;52.758;5.076;2023-12-20T12:36:49;101262.56;;;9.01;100.00
74163;BME280;62515;52.758;5.076;2023-12-20T12:39:17;101256.69;;;8.96;100.00
74163;BME280;62515;52.758;5.076;2023-12-20T12:41:44;101253.09;;;8.97;100.00
74163;BME280;62515;52.758;5.076;2023-12-20T12:44:11;101248.03;;;8.92;100.00
74163;BME280;62515;52.758;5.076;2023-12-20T12:46:44;101252.84;;;8.85;100.00
74163;BME280;62515;52.758;5.076;2023-12-20T12:49:10;101247.97;;;8.93;100.00
74163;BME280;62515;52.758;5.076;2023-12-20T12:51:39;101249.59;;;8.96;100.00